sensor_id;sensor_type;location;lat;lon;timestamp;pressure;altitude;pressure_sealevel;temperature;humidity
9523;BME280;63165;43.016;25.784;2023-03-13T00:01:11;100465.59;;;7.05;60.30
9523;BME280;63165;43.016;25.784;2023-03-13T00:03:39;100491.63;;;7.16;60.21
9523;BME280;63165;43.016;25.784;2023-03-13T00:06:06;100517.72;;;7.33;60.01
9523;BME280;63165;43.016;25.784;2023-03-13T00:08:35;100505.53;;;7.19;59.44
9523;BME280;63165;43.016;25.784;2023-03-13T00:11:03;100522.94;;;7.28;59.01
9523;BME280;63165;43.016;25.784;2023-03-13T00:13:31;100518.56;;;7.24;58.09
9523;BME280;63165;43.016;25.784;2023-03-13T00:15:59;100513.31;;;7.18;57.48
9523;BME280;63165;43.016;25.784;2023-03-13T00:18:26;100522.03;;;7.29;56.99
9523;BME280;63165;43.016;25.784;2023-03-13T00:20:57;100535.06;;;7.31;56.52
9523;BME280;63165;43.016;25.784;2023-03-13T00:23:24;100523.81;;;7.33;55.99
9523;BME280;63165;43.016;25.784;2023-03-13T00:25:56;100523.81;;;7.35;55.78
9523;BME280;63165;43.016;25.784;2023-03-13T00:28:24;100522.09;;;7.35;56.08
9523;BME280;63165;43.016;25.784;2023-03-13T00:30:59;100491.63;;;7.11;55.47
9523;BME280;63165;43.016;25.784;2023-03-13T00:33:27;100516.84;;;7.31;55.66
9523;BME280;63165;43.016;25.784;2023-03-13T00:35:57;100505.56;;;7.26;55.55
9523;BME280;63165;43.016;25.784;2023-03-13T00:38:24;100494.25;;;7.13;55.39
9523;BME280;63165;43.016;25.784;2023-03-13T00:40:59;100515.97;;;7.29;55.90
9523;BME280;63165;43.016;25.784;2023-03-13T00:43:27;100492.47;;;7.09;56.40
9523;BME280;63165;43.016;25.784;2023-03-13T00:45:55;100523.75;;;7.21;55.95
9523;BME280;63165;43.016;25.784;2023-03-13T00:48:22;100522.88;;;7.13;56.48
9523;BME280;63165;43.016;25.784;2023-03-13T00:50:50;100510.66;;;7.03;56.79
9523;BME280;63165;43.016;25.784;2023-03-13T00:53:17;100515.84;;;7.01;57.15
9523;BME280;63165;43.016;25.784;2023-03-13T00:55:51;100517.59;;;7.00;57.30
9523;BME280;63165;43.016;25.784;2023-03-13T00:58:21;100522.78;;;6.99;57.22
9523;BME280;63165;43.016;25.784;2023-03-13T01:00:49;100506.22;;;6.86;57.66
9523;BME280;63165;43.016;25.784;2023-03-13T01:03:16;100521.81;;;6.86;57.41
9523;BME280;63165;43.016;25.784;2023-03-13T01:05:43;100505.16;;;6.55;58.14
9523;BME280;63165;43.016;25.784;2023-03-13T01:08:11;100519.19;;;6.78;58.15
9523;BME280;63165;43.016;25.784;2023-03-13T01:10:38;100494.78;;;6.58;57.74
9523;BME280;63165;43.016;25.784;2023-03-13T01:13:05;100514.75;;;6.64;58.55
9523;BME280;63165;43.016;25.784;2023-03-13T01:15:35;100522.63;;;6.70;58.55
9523;BME280;63165;43.016;25.784;2023-03-13T01:18:02;100526.03;;;6.67;58.54
9523;BME280;63165;43.016;25.784;2023-03-13T01:20:29;100526.84;;;6.60;58.22
9523;BME280;63165;43.016;25.784;2023-03-13T01:22:57;100527.72;;;6.57;58.86
9523;BME280;63165;43.016;25.784;2023-03-13T01:25:24;100547.66;;;6.60;59.06
9523;BME280;63165;43.016;25.784;2023-03-13T01:27:51;100532.91;;;6.53;59.27
9523;BME280;63165;43.016;25.784;2023-03-13T01:30:19;100543.28;;;6.54;59.34
9523;BME280;63165;43.016;25.784;2023-03-13T01:32:47;100537.19;;;6.49;58.81
9523;BME280;63165;43.016;25.784;2023-03-13T01:35:15;100544.94;;;6.45;58.92
9523;BME280;63165;43.016;25.784;2023-03-13T01:37:43;100530.94;;;6.26;58.74
9523;BME280;63165;43.016;25.784;2023-03-13T01:40:11;100545.69;;;6.31;59.02
9523;BME280;63165;43.016;25.784;2023-03-13T01:42:49;100553.44;;;6.24;58.83
9523;BME280;63165;43.016;25.784;2023-03-13T01:45:52;100566.28;;;6.08;59.00
9523;BME280;63165;43.016;25.784;2023-03-13T01:48:23;100563.50;;;5.94;58.65
9523;BME280;63165;43.016;25.784;2023-03-13T01:50:53;100570.28;;;5.83;58.71
9523;BME280;63165;43.016;25.784;2023-03-13T01:53:21;100574.53;;;5.73;58.93
9523;BME280;63165;43.016;25.784;2023-03-13T01:55:48;100585.59;;;5.58;59.56
9523;BME280;63165;43.016;25.784;2023-03-13T01:58:16;100581.06;;;5.42;59.83
9523;BME280;63165;43.016;25.784;2023-03-13T02:00:44;100573.84;;;5.19;59.83
9523;BME280;63165;43.016;25.784;2023-03-13T02:03:15;100597.31;;;5.29;59.93
9523;BME280;63165;43.016;25.784;2023-03-13T02:05:46;100572.78;;;5.05;60.28
9523;BME280;63165;43.016;25.784;2023-03-13T02:08:17;100589.22;;;5.05;60.23
9523;BME280;63165;43.016;25.784;2023-03-13T02:10:49;100596.22;;;5.11;60.75
9523;BME280;63165;43.016;25.784;2023-03-13T02:13:19;100596.09;;;5.03;60.47
9523;BME280;63165;43.016;25.784;2023-03-13T02:15:47;100595.03;;;4.89;60.77
9523;BME280;63165;43.016;25.784;2023-03-13T02:18:15;100604.50;;;4.87;60.94
9523;BME280;63165;43.016;25.784;2023-03-13T02:20:44;100606.13;;;4.82;61.39
9523;BME280;63165;43.016;25.784;2023-03-13T02:23:17;100581.66;;;4.63;61.63
9523;BME280;63165;43.016;25.784;2023-03-13T02:25:50;100604.25;;;4.70;61.73
9523;BME280;63165;43.016;25.784;2023-03-13T02:28:19;100607.66;;;4.69;62.01
9523;BME280;63165;43.016;25.784;2023-03-13T02:30:49;100615.38;;;4.64;61.77
9523;BME280;63165;43.016;25.784;2023-03-13T02:33:17;100590.84;;;4.44;61.75
9523;BME280;63165;43.016;25.784;2023-03-13T02:35:46;100619.41;;;4.48;62.05
9523;BME280;63165;43.016;25.784;2023-03-13T02:38:19;100623.66;;;4.43;62.15
9523;BME280;63165;43.016;25.784;2023-03-13T02:40:49;100546.38;;;3.71;62.19
9523;BME280;63165;43.016;25.784;2023-03-13T02:43:22;100625.19;;;4.32;62.36
9523;BME280;63165;43.016;25.784;2023-03-13T02:46:03;100625.78;;;4.19;62.42
9523;BME280;63165;43.016;25.784;2023-03-13T02:48:33;100618.47;;;3.96;62.27
9523;BME280;63165;43.016;25.784;2023-03-13T02:51:03;100620.19;;;3.96;62.49
9523;BME280;63165;43.016;25.784;2023-03-13T02:53:31;100621.66;;;3.83;62.83
9523;BME280;63165;43.016;25.784;2023-03-13T02:56:02;100542.03;;;3.27;62.87
9523;BME280;63165;43.016;25.784;2023-03-13T02:58:37;100604.81;;;3.59;63.12
9523;BME280;63165;43.016;25.784;2023-03-13T03:01:05;100635.22;;;3.71;63.01
9523;BME280;63165;43.016;25.784;2023-03-13T03:03:33;100633.31;;;3.62;63.68
9523;BME280;63165;43.016;25.784;2023-03-13T03:06:01;100571.97;;;3.16;63.51
9523;BME280;63165;43.016;25.784;2023-03-13T03:08:29;100631.28;;;3.47;63.95
9523;BME280;63165;43.016;25.784;2023-03-13T03:10:57;100643.34;;;3.47;63.86
9523;BME280;63165;43.016;25.784;2023-03-13T03:13:27;100640.38;;;3.30;64.19
9523;BME280;63165;43.016;25.784;2023-03-13T03:15:54;100692.19;;;3.35;63.92
9523;BME280;63165;43.016;25.784;2023-03-13T03:18:22;100620.69;;;2.99;64.42
9523;BME280;63165;43.016;25.784;2023-03-13T03:20:49;100666.34;;;3.33;64.24
9523;BME280;63165;43.016;25.784;2023-03-13T03:23:16;100665.22;;;3.23;64.22
9523;BME280;63165;43.016;25.784;2023-03-13T03:25:44;100569.88;;;2.61;63.99
9523;BME280;63165;43.016;25.784;2023-03-13T03:28:11;100714.53;;;3.29;64.42
9523;BME280;63165;43.016;25.784;2023-03-13T03:30:41;100651.88;;;3.05;63.96
9523;BME280;63165;43.016;25.784;2023-03-13T03:33:08;100672.19;;;3.26;63.99
9523;BME280;63165;43.016;25.784;2023-03-13T03:35:35;100667.41;;;3.06;63.85
9523;BME280;63165;43.016;25.784;2023-03-13T03:38:05;100633.50;;;2.92;64.16
9523;BME280;63165;43.016;25.784;2023-03-13T03:40:33;100688.31;;;3.16;64.45
9523;BME280;63165;43.016;25.784;2023-03-13T03:43:01;100693.41;;;3.11;64.26
9523;BME280;63165;43.016;25.784;2023-03-13T03:45:28;100653.34;;;2.59;64.36
9523;BME280;63165;43.016;25.784;2023-03-13T03:47:58;100680.28;;;3.03;64.48
9523;BME280;63165;43.016;25.784;2023-03-13T03:50:25;100653.75;;;2.76;64.18
9523;BME280;63165;43.016;25.784;2023-03-13T03:52:53;100698.19;;;2.96;64.27
9523;BME280;63165;43.016;25.784;2023-03-13T03:55:20;100624.56;;;2.45;64.56
9523;BME280;63165;43.016;25.784;2023-03-13T03:57:48;100715.63;;;3.04;64.38
9523;BME280;63165;43.016;25.784;2023-03-13T04:00:16;100603.38;;;2.23;64.36
9523;BME280;63165;43.016;25.784;2023-03-13T04:02:44;100722.28;;;2.95;64.18
9523;BME280;63165;43.016;25.784;2023-03-13T04:05:13;100694.13;;;2.39;64.24
9523;BME280;63165;43.016;25.784;2023-03-13T04:07:40;100733.28;;;2.87;64.39
9523;BME280;63165;43.016;25.784;2023-03-13T04:10:09;100712.81;;;2.62;64.44
9523;BME280;63165;43.016;25.784;2023-03-13T04:12:40;100739.78;;;2.71;64.31
9523;BME280;63165;43.016;25.784;2023-03-13T04:15:08;100746.19;;;2.52;64.37
9523;BME280;63165;43.016;25.784;2023-03-13T04:17:35;100719.28;;;2.46;64.26
9523;BME280;63165;43.016;25.784;2023-03-13T04:20:04;100702.53;;;2.31;64.50
9523;BME280;63165;43.016;25.784;2023-03-13T04:22:34;100758.66;;;2.69;64.99
9523;BME280;63165;43.016;25.784;2023-03-13T04:25:01;100713.16;;;2.42;65.39
9523;BME280;63165;43.016;25.784;2023-03-13T04:27:29;100742.91;;;2.60;64.98
9523;BME280;63165;43.016;25.784;2023-03-13T04:29:57;100671.59;;;2.01;64.87
9523;BME280;63165;43.016;25.784;2023-03-13T04:32:24;100739.91;;;2.44;65.03
9523;BME280;63165;43.016;25.784;2023-03-13T04:34:53;100750.66;;;2.60;64.83
9523;BME280;63165;43.016;25.784;2023-03-13T04:37:22;100731.59;;;2.56;64.84
9523;BME280;63165;43.016;25.784;2023-03-13T04:39:54;100759.66;;;2.74;65.17
9523;BME280;63165;43.016;25.784;2023-03-13T04:42:21;100763.81;;;2.69;64.81
9523;BME280;63165;43.016;25.784;2023-03-13T04:44:49;100781.19;;;2.75;64.67
9523;BME280;63165;43.016;25.784;2023-03-13T04:47:17;100766.78;;;2.51;65.14
9523;BME280;63165;43.016;25.784;2023-03-13T04:49:44;100805.88;;;2.63;64.55
9523;BME280;63165;43.016;25.784;2023-03-13T04:52:12;100783.88;;;2.46;65.26
9523;BME280;63165;43.016;25.784;2023-03-13T04:54:39;100803.00;;;2.52;65.49
9523;BME280;63165;43.016;25.784;2023-03-13T04:57:08;100814.38;;;2.59;65.45
9523;BME280;63165;43.016;25.784;2023-03-13T04:59:36;100799.75;;;2.60;65.50
9523;BME280;63165;43.016;25.784;2023-03-13T05:02:04;100791.94;;;2.57;65.43
9523;BME280;63165;43.016;25.784;2023-03-13T05:04:32;100814.00;;;2.47;65.28
9523;BME280;63165;43.016;25.784;2023-03-13T05:07:14;100802.91;;;2.49;65.67
9523;BME280;63165;43.016;25.784;2023-03-13T05:09:45;100828.75;;;2.49;65.49
9523;BME280;63165;43.016;25.784;2023-03-13T05:12:25;100839.03;;;2.48;65.90
9523;BME280;63165;43.016;25.784;2023-03-13T05:14:54;100828.75;;;2.49;65.57
9523;BME280;63165;43.016;25.784;2023-03-13T05:17:21;100826.25;;;2.52;66.00
9523;BME280;63165;43.016;25.784;2023-03-13T05:19:49;100816.75;;;2.51;65.74
9523;BME280;63165;43.016;25.784;2023-03-13T05:22:17;100789.25;;;2.53;66.12
9523;BME280;63165;43.016;25.784;2023-03-13T05:24:45;100794.41;;;2.53;66.34
9523;BME280;63165;43.016;25.784;2023-03-13T05:27:12;100820.97;;;2.80;66.61
9523;BME280;63165;43.016;25.784;2023-03-13T05:29:41;100815.59;;;2.72;67.13
9523;BME280;63165;43.016;25.784;2023-03-13T05:32:08;100816.13;;;2.92;67.38
9523;BME280;63165;43.016;25.784;2023-03-13T05:34:36;100809.22;;;2.91;67.23
9523;BME280;63165;43.016;25.784;2023-03-13T05:37:03;100727.53;;;2.32;67.26
9523;BME280;63165;43.016;25.784;2023-03-13T05:39:31;100795.97;;;2.79;67.33
9523;BME280;63165;43.016;25.784;2023-03-13T05:41:58;100751.28;;;2.83;67.25
9523;BME280;63165;43.016;25.784;2023-03-13T05:44:26;100806.97;;;3.03;67.42
9523;BME280;63165;43.016;25.784;2023-03-13T05:46:56;100761.81;;;2.90;66.92
9523;BME280;63165;43.016;25.784;2023-03-13T05:49:24;100776.47;;;2.90;67.18
9523;BME280;63165;43.016;25.784;2023-03-13T05:51:51;100846.63;;;3.37;67.83
9523;BME280;63165;43.016;25.784;2023-03-13T05:54:19;100819.94;;;3.40;67.90
9523;BME280;63165;43.016;25.784;2023-03-13T05:56:48;100749.41;;;3.12;67.83
9523;BME280;63165;43.016;25.784;2023-03-13T05:59:16;100817.66;;;3.52;68.17
9523;BME280;63165;43.016;25.784;2023-03-13T06:01:44;100804.00;;;3.58;68.06
9523;BME280;63165;43.016;25.784;2023-03-13T06:04:12;100851.25;;;3.85;67.78
9523;BME280;63165;43.016;25.784;2023-03-13T06:06:39;100821.03;;;3.86;67.09
9523;BME280;63165;43.016;25.784;2023-03-13T06:09:08;100825.50;;;3.92;66.85
9523;BME280;63165;43.016;25.784;2023-03-13T06:11:36;100845.72;;;4.08;66.79
9523;BME280;63165;43.016;25.784;2023-03-13T06:14:03;100839.84;;;4.15;66.26
9523;BME280;63165;43.016;25.784;2023-03-13T06:16:30;100799.72;;;3.98;66.04
9523;BME280;63165;43.016;25.784;2023-03-13T06:18:57;100809.47;;;4.08;65.59
9523;BME280;63165;43.016;25.784;2023-03-13T06:21:26;100864.56;;;4.40;65.30
9523;BME280;63165;43.016;25.784;2023-03-13T06:23:54;100861.16;;;4.43;64.82
9523;BME280;63165;43.016;25.784;2023-03-13T06:26:21;100848.38;;;4.52;64.33
9523;BME280;63165;43.016;25.784;2023-03-13T06:28:50;100847.78;;;4.65;64.14
9523;BME280;63165;43.016;25.784;2023-03-13T06:31:17;100803.34;;;4.45;63.85
9523;BME280;63165;43.016;25.784;2023-03-13T06:33:44;100833.31;;;4.75;63.50
9523;BME280;63165;43.016;25.784;2023-03-13T06:36:12;100826.63;;;4.86;63.17
9523;BME280;63165;43.016;25.784;2023-03-13T06:38:41;100844.25;;;5.06;63.25
9523;BME280;63165;43.016;25.784;2023-03-13T06:41:08;100841.00;;;5.18;63.41
9523;BME280;63165;43.016;25.784;2023-03-13T06:43:35;100845.59;;;5.31;63.66
9523;BME280;63165;43.016;25.784;2023-03-13T06:46:05;100843.22;;;5.45;63.45
9523;BME280;63165;43.016;25.784;2023-03-13T06:48:33;100818.22;;;5.50;63.44
9523;BME280;63165;43.016;25.784;2023-03-13T06:51:00;100818.44;;;5.64;63.02
9523;BME280;63165;43.016;25.784;2023-03-13T06:53:27;100844.75;;;5.87;62.57
9523;BME280;63165;43.016;25.784;2023-03-13T06:55:59;100827.53;;;5.92;61.87
9523;BME280;63165;43.016;25.784;2023-03-13T06:58:27;100831.22;;;6.05;61.44
9523;BME280;63165;43.016;25.784;2023-03-13T07:00:54;100819.13;;;6.09;61.49
9523;BME280;63165;43.016;25.784;2023-03-13T07:03:21;100834.19;;;6.33;61.37
9523;BME280;63165;43.016;25.784;2023-03-13T07:05:54;100832.59;;;6.43;60.55
9523;BME280;63165;43.016;25.784;2023-03-13T07:08:21;100819.75;;;6.58;60.27
9523;BME280;63165;43.016;25.784;2023-03-13T07:10:50;100833.94;;;6.82;60.05
9523;BME280;63165;43.016;25.784;2023-03-13T07:13:19;100833.25;;;6.98;59.75
9523;BME280;63165;43.016;25.784;2023-03-13T07:15:47;100827.34;;;7.17;59.43
9523;BME280;63165;43.016;25.784;2023-03-13T07:18:15;100829.22;;;7.32;59.35
9523;BME280;63165;43.016;25.784;2023-03-13T07:20:42;100819.78;;;7.44;58.67
9523;BME280;63165;43.016;25.784;2023-03-13T07:23:09;100790.31;;;7.48;57.95
9523;BME280;63165;43.016;25.784;2023-03-13T07:25:37;100827.94;;;7.84;57.50
9523;BME280;63165;43.016;25.784;2023-03-13T07:28:04;100821.09;;;8.01;57.20
9523;BME280;63165;43.016;25.784;2023-03-13T07:30:33;100822.06;;;8.20;55.84
9523;BME280;63165;43.016;25.784;2023-03-13T07:33:00;100799.50;;;8.30;55.09
9523;BME280;63165;43.016;25.784;2023-03-13T07:35:28;100778.69;;;8.33;54.23
9523;BME280;63165;43.016;25.784;2023-03-13T07:37:55;100810.13;;;8.71;53.58
9523;BME280;63165;43.016;25.784;2023-03-13T07:40:22;100803.22;;;8.81;53.43
9523;BME280;63165;43.016;25.784;2023-03-13T07:42:49;100809.34;;;9.03;52.79
9523;BME280;63165;43.016;25.784;2023-03-13T07:45:17;100810.25;;;9.21;52.16
9523;BME280;63165;43.016;25.784;2023-03-13T07:47:45;100800.66;;;9.35;51.21
9523;BME280;63165;43.016;25.784;2023-03-13T07:50:13;100793.72;;;9.57;51.25
9523;BME280;63165;43.016;25.784;2023-03-13T07:52:40;100793.72;;;9.73;51.63
9523;BME280;63165;43.016;25.784;2023-03-13T07:55:08;100795.41;;;9.87;50.63
9523;BME280;63165;43.016;25.784;2023-03-13T07:57:35;100784.06;;;10.07;50.10
9523;BME280;63165;43.016;25.784;2023-03-13T08:00:03;100782.25;;;10.27;49.85
9523;BME280;63165;43.016;25.784;2023-03-13T08:02:34;100789.16;;;10.48;49.71
9523;BME280;63165;43.016;25.784;2023-03-13T08:05:03;100774.22;;;10.67;48.97
9523;BME280;63165;43.016;25.784;2023-03-13T08:07:30;100768.09;;;10.75;47.40
9523;BME280;63165;43.016;25.784;2023-03-13T08:09:58;100749.78;;;10.72;46.55
9523;BME280;63165;43.016;25.784;2023-03-13T08:12:25;100742.84;;;10.67;46.49
9523;BME280;63165;43.016;25.784;2023-03-13T08:14:52;100760.16;;;10.88;45.92
9523;BME280;63165;43.016;25.784;2023-03-13T08:17:19;100762.75;;;10.90;45.65
9523;BME280;63165;43.016;25.784;2023-03-13T08:19:47;100756.66;;;10.93;45.22
9523;BME280;63165;43.016;25.784;2023-03-13T08:22:16;100763.41;;;11.20;45.06
9523;BME280;63165;43.016;25.784;2023-03-13T08:24:43;100747.63;;;11.27;44.63
9523;BME280;63165;43.016;25.784;2023-03-13T08:27:10;100724.13;;;11.20;44.69
9523;BME280;63165;43.016;25.784;2023-03-13T08:29:37;100755.16;;;11.69;44.21
9523;BME280;63165;43.016;25.784;2023-03-13T08:32:04;100709.84;;;11.53;43.55
9523;BME280;63165;43.016;25.784;2023-03-13T08:34:32;100754.06;;;11.90;43.87
9523;BME280;63165;43.016;25.784;2023-03-13T08:36:59;100759.97;;;12.09;43.21
9523;BME280;63165;43.016;25.784;2023-03-13T08:39:28;100721.56;;;12.05;42.83
9523;BME280;63165;43.016;25.784;2023-03-13T08:41:55;100758.72;;;12.41;42.97
9523;BME280;63165;43.016;25.784;2023-03-13T08:44:23;100716.81;;;12.36;42.87
9523;BME280;63165;43.016;25.784;2023-03-13T08:46:50;100753.03;;;12.72;42.31
9523;BME280;63165;43.016;25.784;2023-03-13T08:49:17;100737.34;;;12.70;42.52
9523;BME280;63165;43.016;25.784;2023-03-13T08:51:44;100752.03;;;12.82;42.25
9523;BME280;63165;43.016;25.784;2023-03-13T08:54:12;100763.22;;;12.95;41.93
9523;BME280;63165;43.016;25.784;2023-03-13T08:56:41;100746.53;;;12.97;41.54
9523;BME280;63165;43.016;25.784;2023-03-13T08:59:09;100732.38;;;13.09;41.46
9523;BME280;63165;43.016;25.784;2023-03-13T09:01:37;100738.41;;;13.14;40.95
9523;BME280;63165;43.016;25.784;2023-03-13T09:04:04;100733.09;;;13.17;40.36
9523;BME280;63165;43.016;25.784;2023-03-13T09:06:32;100719.13;;;13.15;40.69
9523;BME280;63165;43.016;25.784;2023-03-13T09:08:59;100720.75;;;13.23;40.72
9523;BME280;63165;43.016;25.784;2023-03-13T09:11:27;100725.75;;;13.41;40.21
9523;BME280;63165;43.016;25.784;2023-03-13T09:13:56;100719.38;;;13.53;40.04
9523;BME280;63165;43.016;25.784;2023-03-13T09:16:26;100715.63;;;13.66;39.53
9523;BME280;63165;43.016;25.784;2023-03-13T09:18:54;100702.34;;;13.72;39.24
9523;BME280;63165;43.016;25.784;2023-03-13T09:21:23;100711.00;;;13.79;38.81
9523;BME280;63165;43.016;25.784;2023-03-13T09:23:51;100708.25;;;13.85;38.93
9523;BME280;63165;43.016;25.784;2023-03-13T09:26:23;100636.25;;;13.47;38.69
9523;BME280;63165;43.016;25.784;2023-03-13T09:28:59;100713.78;;;13.73;37.19
9523;BME280;63165;43.016;25.784;2023-03-13T09:31:30;100668.44;;;13.58;36.91
9523;BME280;63165;43.016;25.784;2023-03-13T09:33:58;100689.88;;;13.84;36.38
9523;BME280;63165;43.016;25.784;2023-03-13T09:36:26;100678.41;;;13.88;36.15
9523;BME280;63165;43.016;25.784;2023-03-13T09:38:55;100688.66;;;14.00;36.17
9523;BME280;63165;43.016;25.784;2023-03-13T09:41:26;100663.22;;;14.01;36.13
9523;BME280;63165;43.016;25.784;2023-03-13T09:44:02;100669.75;;;14.23;35.89
9523;BME280;63165;43.016;25.784;2023-03-13T09:46:38;100658.09;;;14.35;35.76
9523;BME280;63165;43.016;25.784;2023-03-13T09:49:13;100660.81;;;14.30;35.25
9523;BME280;63165;43.016;25.784;2023-03-13T09:51:43;100663.41;;;14.33;35.23
9523;BME280;63165;43.016;25.784;2023-03-13T09:54:21;100663.38;;;14.35;34.83
9523;BME280;63165;43.016;25.784;2023-03-13T09:56:56;100657.44;;;14.25;34.41
9523;BME280;63165;43.016;25.784;2023-03-13T09:59:31;100659.31;;;14.20;34.53
9523;BME280;63165;43.016;25.784;2023-03-13T10:02:03;100663.47;;;14.29;34.49
9523;BME280;63165;43.016;25.784;2023-03-13T10:04:41;100650.97;;;14.40;34.29
9523;BME280;63165;43.016;25.784;2023-03-13T10:07:11;100657.28;;;14.33;34.34
9523;BME280;63165;43.016;25.784;2023-03-13T10:09:38;100639.94;;;14.23;34.26
9523;BME280;63165;43.016;25.784;2023-03-13T10:12:12;100630.94;;;14.33;34.33
9523;BME280;63165;43.016;25.784;2023-03-13T10:14:49;100651.53;;;14.53;34.27
9523;BME280;63165;43.016;25.784;2023-03-13T10:17:30;100649.50;;;14.66;34.29
9523;BME280;63165;43.016;25.784;2023-03-13T10:20:00;100645.63;;;14.81;34.24
9523;BME280;63165;43.016;25.784;2023-03-13T10:22:33;100630.09;;;14.70;33.81
9523;BME280;63165;43.016;25.784;2023-03-13T10:25:04;100644.78;;;14.80;33.21
9523;BME280;63165;43.016;25.784;2023-03-13T10:27:42;100646.41;;;14.86;32.78
9523;BME280;63165;43.016;25.784;2023-03-13T10:30:19;100626.34;;;14.80;32.83
9523;BME280;63165;43.016;25.784;2023-03-13T10:32:48;100647.09;;;14.92;32.89
9523;BME280;63165;43.016;25.784;2023-03-13T10:35:20;100625.25;;;14.89;32.67
9523;BME280;63165;43.016;25.784;2023-03-13T10:37:47;100623.34;;;14.94;32.55
9523;BME280;63165;43.016;25.784;2023-03-13T10:40:21;100621.38;;;15.04;32.19
9523;BME280;63165;43.016;25.784;2023-03-13T10:42:51;100608.50;;;14.91;32.18
9523;BME280;63165;43.016;25.784;2023-03-13T10:45:21;100613.53;;;15.01;31.99
9523;BME280;63165;43.016;25.784;2023-03-13T10:47:53;100605.56;;;15.04;32.08
9523;BME280;63165;43.016;25.784;2023-03-13T10:50:23;100602.50;;;15.19;31.74
9523;BME280;63165;43.016;25.784;2023-03-13T10:52:51;100597.88;;;15.27;31.50
9523;BME280;63165;43.016;25.784;2023-03-13T10:55:21;100595.97;;;15.32;31.38
9523;BME280;63165;43.016;25.784;2023-03-13T10:57:56;100566.34;;;15.24;31.28
9523;BME280;63165;43.016;25.784;2023-03-13T11:00:32;100582.63;;;15.39;31.08
9523;BME280;63165;43.016;25.784;2023-03-13T11:03:01;100588.91;;;15.34;31.20
9523;BME280;63165;43.016;25.784;2023-03-13T11:05:36;100588.81;;;15.38;31.08
9523;BME280;63165;43.016;25.784;2023-03-13T11:08:22;100575.78;;;15.31;29.97
9523;BME280;63165;43.016;25.784;2023-03-13T11:10:52;100569.53;;;15.36;29.90
9523;BME280;63165;43.016;25.784;2023-03-13T11:13:28;100561.34;;;15.45;30.25
9523;BME280;63165;43.016;25.784;2023-03-13T11:16:01;100561.94;;;15.56;30.22
9523;BME280;63165;43.016;25.784;2023-03-13T11:18:33;100529.53;;;15.51;30.29
9523;BME280;63165;43.016;25.784;2023-03-13T11:21:02;100554.50;;;15.69;30.17
9523;BME280;63165;43.016;25.784;2023-03-13T11:23:34;100541.94;;;15.79;30.78
9523;BME280;63165;43.016;25.784;2023-03-13T11:26:09;100543.66;;;15.80;29.91
9523;BME280;63165;43.016;25.784;2023-03-13T11:28:49;100537.59;;;15.76;29.68
9523;BME280;63165;43.016;25.784;2023-03-13T11:31:22;100532.16;;;15.82;29.15
9523;BME280;63165;43.016;25.784;2023-03-13T11:33:55;100518.31;;;15.74;28.92
9523;BME280;63165;43.016;25.784;2023-03-13T11:36:32;100528.59;;;15.83;29.42
9523;BME280;63165;43.016;25.784;2023-03-13T11:39:09;100523.09;;;15.91;29.04
9523;BME280;63165;43.016;25.784;2023-03-13T11:41:50;100514.66;;;16.06;29.07
9523;BME280;63165;43.016;25.784;2023-03-13T11:44:26;100510.78;;;16.18;28.99
9523;BME280;63165;43.016;25.784;2023-03-13T11:47:08;100491.38;;;16.19;28.98
9523;BME280;63165;43.016;25.784;2023-03-13T11:52:51;100483.97;;;16.57;29.00
9523;BME280;63165;43.016;25.784;2023-03-13T11:55:28;100499.34;;;16.71;28.33
9523;BME280;63165;43.016;25.784;2023-03-13T11:58:13;100497.22;;;16.81;28.61
9523;BME280;63165;43.016;25.784;2023-03-13T12:00:45;100501.34;;;16.90;28.11
9523;BME280;63165;43.016;25.784;2023-03-13T12:03:17;100481.03;;;16.92;28.15
9523;BME280;63165;43.016;25.784;2023-03-13T12:05:48;100485.97;;;17.01;27.59
9523;BME280;63165;43.016;25.784;2023-03-13T12:08:19;100483.91;;;17.09;27.56
9523;BME280;63165;43.016;25.784;2023-03-13T12:10:53;100472.38;;;17.12;26.83
9523;BME280;63165;43.016;25.784;2023-03-13T12:13:25;100479.03;;;17.22;27.37
9523;BME280;63165;43.016;25.784;2023-03-13T12:15:56;100458.53;;;17.29;27.31
9523;BME280;63165;43.016;25.784;2023-03-13T12:18:30;100460.97;;;17.33;27.10
9523;BME280;63165;43.016;25.784;2023-03-13T12:21:04;100467.66;;;17.43;26.80
9523;BME280;63165;43.016;25.784;2023-03-13T12:23:41;100440.81;;;17.31;26.65
9523;BME280;63165;43.016;25.784;2023-03-13T12:26:14;100463.03;;;17.49;26.13
9523;BME280;63165;43.016;25.784;2023-03-13T12:28:44;100439.81;;;17.33;26.76
9523;BME280;63165;43.016;25.784;2023-03-13T12:31:20;100455.91;;;17.51;26.41
9523;BME280;63165;43.016;25.784;2023-03-13T12:33:55;100467.50;;;17.46;26.04
9523;BME280;63165;43.016;25.784;2023-03-13T12:36:29;100466.97;;;17.38;26.22
9523;BME280;63165;43.016;25.784;2023-03-13T12:39:04;100439.06;;;17.30;26.46
9523;BME280;63165;43.016;25.784;2023-03-13T12:41:36;100442.50;;;17.32;26.08
9523;BME280;63165;43.016;25.784;2023-03-13T12:44:08;100456.38;;;17.38;25.30
9523;BME280;63165;43.016;25.784;2023-03-13T12:46:43;100458.28;;;17.35;25.01
9523;BME280;63165;43.016;25.784;2023-03-13T12:49:57;100439.88;;;17.32;25.06
9523;BME280;63165;43.016;25.784;2023-03-13T12:52:42;100420.56;;;17.30;25.72
9523;BME280;63165;43.016;25.784;2023-03-13T12:55:43;100451.13;;;17.60;25.81
9523;BME280;63165;43.016;25.784;2023-03-13T12:58:28;100460.31;;;17.50;25.49
9523;BME280;63165;43.016;25.784;2023-03-13T13:01:01;100458.38;;;17.32;24.59
9523;BME280;63165;43.016;25.784;2023-03-13T13:03:31;100445.59;;;17.21;24.81
9523;BME280;63165;43.016;25.784;2023-03-13T13:06:18;100457.47;;;17.33;25.75
9523;BME280;63165;43.016;25.784;2023-03-13T13:08:48;100463.56;;;17.35;25.47
9523;BME280;63165;43.016;25.784;2023-03-13T13:11:55;100460.13;;;17.33;25.89
9523;BME280;63165;43.016;25.784;2023-03-13T13:15:00;100453.53;;;17.21;24.99